Time;durP1;ratioP1;P1;durP2;ratioP2;P2;SDS_P1;SDS_P2;PMS_P1;PMS_P2;Temp;Humidity;BMP_temperature;BMP_pressure;BME280_temperature;BME280_humidity;BME280_pressure;Samples;Min_cycle;Max_cycle;Signal;HPM_P1;HPM_P2
2021/07/05 00:01:42;;;;;;;;;;;10.50;99.90;;;;;;5072326;28;19912;-64
2021/07/05 00:04:10;;;;;;;;;;;10.60;99.90;;;;;;5072199;28;19909;-67
2021/07/05 00:06:38;;;;;;;;;;;10.70;99.90;;;;;;5072403;28;20625;-66
2021/07/05 00:09:05;;;;;;;;;;;10.70;99.90;;;;;;5072310;28;19915;-66
2021/07/05 00:11:32;;;;;;;;;;;10.70;99.90;;;;;;5072274;28;19909;-67
2021/07/05 00:13:59;;;;;;;;;;;10.80;99.90;;;;;;5072211;28;20065;-66
2021/07/05 00:16:26;;;;;;;;;;;10.80;99.90;;;;;;5073054;28;19959;-66
2021/07/05 00:18:53;;;;;;;;;;;10.90;99.90;;;;;;5072131;28;19909;-67
2021/07/05 00:21:19;;;;;;;;;;;10.90;99.90;;;;;;5072252;28;19915;-66
2021/07/05 00:23:46;;;;;;;;;;;10.90;99.90;;;;;;5072068;28;19986;-68
2021/07/05 00:26:13;;;;;;;;;;;11.00;99.90;;;;;;5072127;28;19918;-67
2021/07/05 00:28:39;;;;;;;;;;;11.10;99.90;;;;;;5072237;28;19997;-67
2021/07/05 00:31:06;;;;;;;;;;;11.20;99.90;;;;;;5072195;28;19944;-66
2021/07/05 00:33:36;;;;;;;;;;;11.20;99.90;;;;;;5071740;28;19916;-66
2021/07/05 00:36:03;;;;;;;;;;;11.20;99.90;;;;;;5072107;28;19908;-67
2021/07/05 00:38:31;;;;;;;;;;;11.30;99.90;;;;;;5072299;28;19908;-68
2021/07/05 00:40:58;;;;;;;;;;;11.40;99.90;;;;;;5072159;28;19974;-67
2021/07/05 00:43:24;;;;;;;;;;;11.40;99.90;;;;;;5071949;28;19908;-66
2021/07/05 00:45:51;;;;;;;;;;;11.50;99.90;;;;;;5071626;28;19923;-66
2021/07/05 00:48:18;;;;;;;;;;;11.60;99.90;;;;;;5072056;28;19916;-65
2021/07/05 00:50:44;;;;;;;;;;;11.60;99.90;;;;;;5071963;28;19915;-66
2021/07/05 00:53:11;;;;;;;;;;;11.70;99.90;;;;;;5075591;28;19908;-66
2021/07/05 00:55:38;;;;;;;;;;;11.80;99.90;;;;;;5075614;28;19912;-67
2021/07/05 00:58:04;;;;;;;;;;;11.90;99.90;;;;;;5076023;28;20556;-66
2021/07/05 01:00:31;;;;;;;;;;;12.00;99.90;;;;;;5075770;28;19909;-66
2021/07/05 01:02:58;;;;;;;;;;;12.00;99.90;;;;;;5075540;28;19916;-67
2021/07/05 01:05:25;;;;;;;;;;;12.20;99.90;;;;;;5075537;28;20274;-67
2021/07/05 01:07:52;;;;;;;;;;;12.30;99.90;;;;;;5075359;28;19920;-67
2021/07/05 01:10:20;;;;;;;;;;;12.60;99.90;;;;;;5075527;28;19909;-66
2021/07/05 01:12:47;;;;;;;;;;;13.00;99.90;;;;;;5075623;28;19909;-67
2021/07/05 01:15:15;;;;;;;;;;;13.10;99.90;;;;;;5075312;28;20008;-67
2021/07/05 01:17:42;;;;;;;;;;;13.30;99.90;;;;;;5075114;28;19909;-66
2021/07/05 01:20:11;;;;;;;;;;;13.60;99.90;;;;;;5075518;28;20387;-66
2021/07/05 01:22:38;;;;;;;;;;;14.00;98.80;;;;;;5075350;28;19947;-66
2021/07/05 01:25:05;;;;;;;;;;;13.90;99.30;;;;;;5075283;28;19918;-67
2021/07/05 01:27:32;;;;;;;;;;;13.70;99.30;;;;;;5074951;28;20357;-67
2021/07/05 01:29:58;;;;;;;;;;;13.50;99.90;;;;;;5075161;28;19919;-67
2021/07/05 01:32:25;;;;;;;;;;;13.30;99.50;;;;;;5074982;28;19909;-67
2021/07/05 01:34:52;;;;;;;;;;;13.30;99.90;;;;;;5075494;28;19966;-67
2021/07/05 01:37:18;;;;;;;;;;;13.20;99.80;;;;;;5075152;28;20251;-66
2021/07/05 01:39:45;;;;;;;;;;;13.20;99.90;;;;;;5074880;28;19998;-66
2021/07/05 01:42:12;;;;;;;;;;;13.20;99.90;;;;;;5075132;28;19908;-68
2021/07/05 01:44:38;;;;;;;;;;;13.20;99.90;;;;;;5075179;28;19919;-67
2021/07/05 01:47:05;;;;;;;;;;;13.20;99.90;;;;;;5074968;28;19962;-66
2021/07/05 01:49:32;;;;;;;;;;;13.20;99.90;;;;;;5074592;28;20369;-66
2021/07/05 01:51:59;;;;;;;;;;;13.20;99.90;;;;;;5074951;28;19917;-66
2021/07/05 01:54:26;;;;;;;;;;;13.20;99.90;;;;;;5074788;28;19908;-66
2021/07/05 01:56:52;;;;;;;;;;;13.10;99.90;;;;;;5074544;28;19909;-66
2021/07/05 01:59:19;;;;;;;;;;;13.10;99.90;;;;;;5074615;28;19908;-66
2021/07/05 02:01:46;;;;;;;;;;;13.10;99.50;;;;;;5074611;28;19915;-67
2021/07/05 02:04:12;;;;;;;;;;;13.20;99.70;;;;;;5074679;28;19909;-66
2021/07/05 02:06:39;;;;;;;;;;;13.10;99.90;;;;;;5074774;28;19920;-67
2021/07/05 02:09:07;;;;;;;;;;;13.20;99.90;;;;;;5074713;28;20256;-67
2021/07/05 02:11:35;;;;;;;;;;;13.20;99.50;;;;;;5074099;28;19916;-67
2021/07/05 02:14:03;;;;;;;;;;;13.30;99.90;;;;;;5074355;28;19912;-67
2021/07/05 02:16:30;;;;;;;;;;;13.30;99.10;;;;;;5074119;28;19916;-67
2021/07/05 02:18:57;;;;;;;;;;;13.20;99.50;;;;;;5074389;28;19913;-67
2021/07/05 02:21:24;;;;;;;;;;;13.20;99.00;;;;;;5074254;28;19951;-67
2021/07/05 02:23:51;;;;;;;;;;;13.10;99.10;;;;;;5074139;28;19912;-67
2021/07/05 02:26:17;;;;;;;;;;;13.20;99.10;;;;;;5074288;28;19970;-67
2021/07/05 02:28:44;;;;;;;;;;;13.30;98.70;;;;;;5074017;28;19956;-67
2021/07/05 02:31:11;;;;;;;;;;;13.30;98.80;;;;;;5073854;28;20259;-67
2021/07/05 02:33:38;;;;;;;;;;;13.30;99.00;;;;;;5073689;28;19924;-68
2021/07/05 02:36:06;;;;;;;;;;;13.40;98.70;;;;;;5073892;28;19920;-67
2021/07/05 02:38:34;;;;;;;;;;;13.40;99.00;;;;;;5073773;28;19916;-67
2021/07/05 02:41:01;;;;;;;;;;;13.40;98.90;;;;;;5073864;28;20018;-67
2021/07/05 02:43:28;;;;;;;;;;;13.50;98.20;;;;;;5073867;28;19932;-68
2021/07/05 02:45:57;;;;;;;;;;;13.60;98.10;;;;;;5073609;28;19978;-68
2021/07/05 02:48:24;;;;;;;;;;;13.70;97.80;;;;;;5073664;28;19916;-67
2021/07/05 02:50:57;;;;;;;;;;;13.70;96.80;;;;;;5073585;28;20042;-66
2021/07/05 02:53:24;;;;;;;;;;;13.70;96.90;;;;;;5073912;28;19912;-67
2021/07/05 02:55:50;;;;;;;;;;;13.60;96.80;;;;;;5073428;28;20011;-67
2021/07/05 02:58:17;;;;;;;;;;;13.50;97.20;;;;;;5073439;28;20292;-67
2021/07/05 03:00:46;;;;;;;;;;;13.60;96.20;;;;;;5072020;28;19909;-66
2021/07/05 03:03:13;;;;;;;;;;;13.50;96.30;;;;;;5073426;28;19908;-66
2021/07/05 03:05:39;;;;;;;;;;;13.50;95.90;;;;;;5073041;28;19915;-67
2021/07/05 03:08:07;;;;;;;;;;;13.60;96.50;;;;;;5073201;28;19935;-67
2021/07/05 03:10:36;;;;;;;;;;;13.60;96.60;;;;;;5073335;28;20267;-66
2021/07/05 03:13:04;;;;;;;;;;;13.50;96.10;;;;;;5073139;28;19909;-67
2021/07/05 03:15:30;;;;;;;;;;;13.40;96.60;;;;;;5072667;28;19920;-67
2021/07/05 03:17:57;;;;;;;;;;;13.50;96.10;;;;;;5073139;28;19912;-67
2021/07/05 03:20:28;;;;;;;;;;;13.50;97.40;;;;;;5073090;28;19908;-66
2021/07/05 03:22:55;;;;;;;;;;;13.50;96.10;;;;;;5073305;28;20377;-68
2021/07/05 03:25:22;;;;;;;;;;;13.70;96.20;;;;;;5073000;28;19916;-66
2021/07/05 03:27:50;;;;;;;;;;;13.70;96.70;;;;;;5072849;28;19924;-67
2021/07/05 03:30:17;;;;;;;;;;;13.80;95.80;;;;;;5072969;28;19916;-67
2021/07/05 03:32:44;;;;;;;;;;;13.80;95.10;;;;;;5072642;28;20378;-68
2021/07/05 03:35:11;;;;;;;;;;;13.70;95.80;;;;;;5073031;28;19909;-68
2021/07/05 03:37:39;;;;;;;;;;;13.70;95.80;;;;;;5072556;28;19919;-66
2021/07/05 03:40:08;;;;;;;;;;;13.70;95.70;;;;;;5073316;28;19999;-67
2021/07/05 03:42:36;;;;;;;;;;;13.70;95.50;;;;;;5072972;28;19912;-66
2021/07/05 03:45:07;;;;;;;;;;;13.70;95.70;;;;;;5072161;28;19985;-68
2021/07/05 03:47:35;;;;;;;;;;;13.70;95.00;;;;;;5072827;28;20252;-68
2021/07/05 03:50:07;;;;;;;;;;;13.70;94.80;;;;;;5073201;28;19908;-66
2021/07/05 03:52:35;;;;;;;;;;;13.70;94.40;;;;;;5073472;28;20413;-67
2021/07/05 03:55:05;;;;;;;;;;;13.80;95.30;;;;;;5072897;28;20333;-66
2021/07/05 03:57:33;;;;;;;;;;;13.80;94.50;;;;;;5072587;28;19908;-66
2021/07/05 04:00:00;;;;;;;;;;;13.70;94.80;;;;;;5072545;28;20440;-65
2021/07/05 04:02:26;;;;;;;;;;;13.70;94.80;;;;;;5070477;28;20384;-66
2021/07/05 04:04:55;;;;;;;;;;;13.70;95.10;;;;;;5070004;28;20287;-66
2021/07/05 04:07:21;;;;;;;;;;;13.80;94.80;;;;;;5072184;28;19916;-67
2021/07/05 04:09:48;;;;;;;;;;;13.80;94.40;;;;;;5071978;28;19947;-67
2021/07/05 04:12:19;;;;;;;;;;;13.80;94.60;;;;;;5070330;28;19912;-67
2021/07/05 04:14:46;;;;;;;;;;;13.70;94.80;;;;;;5070884;28;19941;-67
2021/07/05 04:17:13;;;;;;;;;;;13.80;94.80;;;;;;5068342;28;19957;-67
2021/07/05 04:19:40;;;;;;;;;;;13.90;94.50;;;;;;5072143;28;19916;-66
2021/07/05 04:22:06;;;;;;;;;;;13.80;94.70;;;;;;5072031;28;19917;-67
2021/07/05 04:24:33;;;;;;;;;;;13.90;94.10;;;;;;5072324;28;19989;-67
2021/07/05 04:27:00;;;;;;;;;;;13.90;93.90;;;;;;5071142;28;19916;-66
2021/07/05 04:29:26;;;;;;;;;;;13.90;93.40;;;;;;5071977;28;19909;-67
2021/07/05 04:31:53;;;;;;;;;;;14.00;93.40;;;;;;5071770;28;19928;-68
2021/07/05 04:34:20;;;;;;;;;;;13.90;93.50;;;;;;5072082;28;19914;-66
2021/07/05 04:36:46;;;;;;;;;;;13.80;93.50;;;;;;5072045;28;19908;-66
2021/07/05 04:39:13;;;;;;;;;;;13.90;93.40;;;;;;5071997;28;19970;-67
2021/07/05 04:41:39;;;;;;;;;;;13.90;93.60;;;;;;5071905;28;19915;-66
2021/07/05 04:44:06;;;;;;;;;;;14.00;92.60;;;;;;5071897;28;19913;-67
2021/07/05 04:46:33;;;;;;;;;;;14.00;92.60;;;;;;5071768;28;19917;-66
2021/07/05 04:49:00;;;;;;;;;;;14.10;92.80;;;;;;5071814;28;20326;-67
2021/07/05 04:51:27;;;;;;;;;;;14.10;93.00;;;;;;5071941;28;19962;-66
2021/07/05 04:53:53;;;;;;;;;;;14.10;92.10;;;;;;5071500;28;20324;-66
2021/07/05 04:56:20;;;;;;;;;;;14.10;92.50;;;;;;5071767;28;19916;-66
2021/07/05 04:58:48;;;;;;;;;;;14.10;93.00;;;;;;5070713;28;19908;-66
2021/07/05 05:01:15;;;;;;;;;;;14.20;92.90;;;;;;5071813;28;19920;-66
2021/07/05 05:03:42;;;;;;;;;;;14.20;93.30;;;;;;5071659;28;19912;-66
2021/07/05 05:06:08;;;;;;;;;;;14.10;92.60;;;;;;5071482;28;19927;-65
2021/07/05 05:08:35;;;;;;;;;;;14.10;92.60;;;;;;5071536;28;20023;-66
2021/07/05 05:11:02;;;;;;;;;;;14.10;92.90;;;;;;5071573;28;19916;-66
2021/07/05 05:13:29;;;;;;;;;;;14.10;92.70;;;;;;5071616;28;19912;-66
2021/07/05 05:15:55;;;;;;;;;;;14.00;92.40;;;;;;5071333;28;19921;-66
2021/07/05 05:18:22;;;;;;;;;;;14.10;92.30;;;;;;5071708;28;19912;-66
2021/07/05 05:20:49;;;;;;;;;;;14.10;93.30;;;;;;5071911;28;19970;-67
2021/07/05 05:23:16;;;;;;;;;;;14.00;92.80;;;;;;5071711;28;19908;-66
2021/07/05 05:25:42;;;;;;;;;;;14.00;93.90;;;;;;5071296;28;19908;-65
2021/07/05 05:28:09;;;;;;;;;;;14.00;93.50;;;;;;5071442;28;19920;-67
2021/07/05 05:30:36;;;;;;;;;;;14.00;92.20;;;;;;5071419;28;19951;-68
2021/07/05 05:33:02;;;;;;;;;;;14.10;91.70;;;;;;5071544;28;19958;-67
2021/07/05 05:35:29;;;;;;;;;;;14.10;91.90;;;;;;5071335;28;19913;-67
2021/07/05 05:37:56;;;;;;;;;;;14.10;92.50;;;;;;5073020;28;19992;-67
2021/07/05 05:40:23;;;;;;;;;;;14.00;92.80;;;;;;5075173;28;19908;-68
2021/07/05 05:42:50;;;;;;;;;;;14.10;92.40;;;;;;5075072;28;19912;-65
2021/07/05 05:45:17;;;;;;;;;;;14.00;92.20;;;;;;5075044;28;19913;-67
2021/07/05 05:47:43;;;;;;;;;;;14.00;92.10;;;;;;5074864;28;19962;-67
2021/07/05 05:50:10;;;;;;;;;;;14.00;92.60;;;;;;5074667;28;19977;-66
2021/07/05 05:52:37;;;;;;;;;;;14.10;93.50;;;;;;5074772;28;19955;-65
2021/07/05 05:55:05;;;;;;;;;;;14.00;93.50;;;;;;5074804;28;19908;-66
2021/07/05 05:57:32;;;;;;;;;;;13.90;93.30;;;;;;5074478;28;19914;-66
2021/07/05 06:00:01;;;;;;;;;;;13.90;93.80;;;;;;5074953;28;19912;-66
2021/07/05 06:02:29;;;;;;;;;;;13.90;93.70;;;;;;5074762;28;19920;-66
2021/07/05 06:04:55;;;;;;;;;;;13.80;93.70;;;;;;5074435;28;20328;-65
2021/07/05 06:07:22;;;;;;;;;;;13.80;93.20;;;;;;5074291;28;19920;-66
2021/07/05 06:09:49;;;;;;;;;;;13.80;93.40;;;;;;5074291;28;19908;-66
2021/07/05 06:12:17;;;;;;;;;;;13.80;94.30;;;;;;5074026;28;19966;-67
2021/07/05 06:14:44;;;;;;;;;;;13.80;94.20;;;;;;5072212;28;19963;-66
2021/07/05 06:17:10;;;;;;;;;;;13.70;94.00;;;;;;5074075;28;20358;-66
2021/07/05 06:19:37;;;;;;;;;;;13.60;94.10;;;;;;5073383;28;19923;-67
2021/07/05 06:22:12;;;;;;;;;;;13.60;94.30;;;;;;5074414;28;19916;-66
2021/07/05 06:24:39;;;;;;;;;;;13.50;94.70;;;;;;5073343;28;19919;-66
2021/07/05 06:27:06;;;;;;;;;;;13.40;94.60;;;;;;5072308;28;19935;-67
2021/07/05 06:29:33;;;;;;;;;;;13.40;94.50;;;;;;5073049;28;19912;-66
2021/07/05 06:31:59;;;;;;;;;;;13.30;94.60;;;;;;5073864;28;20053;-66
2021/07/05 06:34:26;;;;;;;;;;;13.30;95.60;;;;;;5073211;28;20004;-67
2021/07/05 06:36:53;;;;;;;;;;;13.20;95.60;;;;;;5073305;28;20010;-67
2021/07/05 06:39:19;;;;;;;;;;;13.10;95.90;;;;;;5073851;28;19956;-67
2021/07/05 06:41:46;;;;;;;;;;;13.10;94.90;;;;;;5072335;28;19909;-66
2021/07/05 06:44:13;;;;;;;;;;;13.00;94.60;;;;;;5072927;28;19958;-65
2021/07/05 06:46:40;;;;;;;;;;;13.00;94.80;;;;;;5073379;28;19955;-67
2021/07/05 06:49:06;;;;;;;;;;;12.90;94.50;;;;;;5072118;28;20327;-66
2021/07/05 06:51:33;;;;;;;;;;;12.90;93.80;;;;;;5071790;28;19918;-66
2021/07/05 06:54:00;;;;;;;;;;;12.90;93.70;;;;;;5073832;28;20329;-66
2021/07/05 06:56:26;;;;;;;;;;;12.90;93.50;;;;;;5073107;28;19951;-66
2021/07/05 06:58:53;;;;;;;;;;;12.90;93.50;;;;;;5072608;28;20386;-66
2021/07/05 07:01:19;;;;;;;;;;;12.90;92.90;;;;;;5073389;28;20350;-66
2021/07/05 07:03:46;;;;;;;;;;;12.90;92.40;;;;;;5072335;28;19920;-68
2021/07/05 07:06:13;;;;;;;;;;;13.00;92.40;;;;;;5071533;28;19917;-66
2021/07/05 07:08:39;;;;;;;;;;;13.00;92.30;;;;;;5072464;28;20394;-66
2021/07/05 07:11:06;;;;;;;;;;;13.00;92.70;;;;;;5072130;28;19908;-67
2021/07/05 07:13:33;;;;;;;;;;;13.00;92.70;;;;;;5061121;28;19916;-67
2021/07/05 07:16:01;;;;;;;;;;;12.90;93.30;;;;;;5052911;28;19921;-66
2021/07/05 07:20:58;;;;;;;;;;;12.90;93.10;;;;;;5073248;28;20108;-67
2021/07/05 07:23:28;;;;;;;;;;;12.90;93.10;;;;;;5071068;28;20301;-66
2021/07/05 07:25:55;;;;;;;;;;;12.90;93.40;;;;;;5072002;28;19961;-67
2021/07/05 07:28:22;;;;;;;;;;;12.90;93.00;;;;;;5071263;28;19970;-66
2021/07/05 07:30:48;;;;;;;;;;;12.90;93.50;;;;;;5072607;28;19912;-66
2021/07/05 07:33:16;;;;;;;;;;;12.90;93.40;;;;;;5072184;28;20386;-67
2021/07/05 07:35:43;;;;;;;;;;;12.80;93.70;;;;;;5072612;28;19931;-67
2021/07/05 07:38:09;;;;;;;;;;;12.80;93.80;;;;;;5071636;28;20321;-66
2021/07/05 07:40:41;;;;;;;;;;;12.80;94.20;;;;;;5070776;28;19909;-66
2021/07/05 07:43:07;;;;;;;;;;;12.70;94.60;;;;;;5069715;28;19921;-66
2021/07/05 07:45:34;;;;;;;;;;;12.70;94.40;;;;;;5061317;28;19965;-67
2021/07/05 07:48:01;;;;;;;;;;;12.70;94.80;;;;;;5061886;28;20019;-66
2021/07/05 07:50:28;;;;;;;;;;;12.70;94.80;;;;;;5070569;28;19912;-66
2021/07/05 07:52:56;;;;;;;;;;;12.60;94.70;;;;;;5069750;28;19932;-67
2021/07/05 07:55:23;;;;;;;;;;;12.60;94.90;;;;;;5070406;28;19916;-66
2021/07/05 07:57:50;;;;;;;;;;;12.60;95.00;;;;;;5068349;28;19927;-66
2021/07/05 08:00:17;;;;;;;;;;;12.50;95.30;;;;;;5069826;28;19916;-67
2021/07/05 08:02:44;;;;;;;;;;;12.50;95.40;;;;;;5070344;28;19912;-66
2021/07/05 08:05:11;;;;;;;;;;;12.50;95.80;;;;;;5069438;28;20272;-67
2021/07/05 08:07:41;;;;;;;;;;;12.40;95.90;;;;;;5069773;28;20367;-66
2021/07/05 08:10:09;;;;;;;;;;;12.30;96.20;;;;;;5069307;28;19917;-66
2021/07/05 08:12:36;;;;;;;;;;;12.30;95.90;;;;;;5069826;28;19917;-66
2021/07/05 08:15:04;;;;;;;;;;;12.30;96.20;;;;;;5069378;28;20297;-65
2021/07/05 08:17:30;;;;;;;;;;;12.30;96.50;;;;;;5069390;28;19912;-66
2021/07/05 08:19:57;;;;;;;;;;;12.20;96.60;;;;;;5070529;28;19955;-65
2021/07/05 08:22:24;;;;;;;;;;;12.20;96.50;;;;;;5069186;28;19957;-65
2021/07/05 08:24:52;;;;;;;;;;;12.20;96.00;;;;;;5070008;28;19916;-65
2021/07/05 08:27:19;;;;;;;;;;;12.20;95.70;;;;;;5068488;28;19916;-65
2021/07/05 08:29:45;;;;;;;;;;;12.30;95.50;;;;;;5069932;28;19919;-65
2021/07/05 08:32:12;;;;;;;;;;;12.30;95.60;;;;;;5069364;28;19908;-65
2021/07/05 08:34:39;;;;;;;;;;;12.20;95.90;;;;;;5070003;28;19924;-65
2021/07/05 08:37:06;;;;;;;;;;;12.20;96.40;;;;;;5068777;28;19932;-65
2021/07/05 08:39:32;;;;;;;;;;;12.10;96.40;;;;;;5068469;28;19938;-66
2021/07/05 08:41:59;;;;;;;;;;;12.10;96.60;;;;;;5068773;28;20024;-67
2021/07/05 08:44:26;;;;;;;;;;;12.10;96.40;;;;;;5069572;28;19912;-66
2021/07/05 08:46:54;;;;;;;;;;;12.10;96.30;;;;;;5069316;28;19917;-66
2021/07/05 08:49:21;;;;;;;;;;;12.10;96.40;;;;;;5069761;28;19916;-65
2021/07/05 08:51:48;;;;;;;;;;;12.10;96.90;;;;;;5068461;28;19912;-66
2021/07/05 08:54:14;;;;;;;;;;;12.10;96.70;;;;;;5069763;28;20040;-65
2021/07/05 08:56:41;;;;;;;;;;;12.00;97.10;;;;;;5068683;28;20346;-66
2021/07/05 08:59:08;;;;;;;;;;;11.90;96.90;;;;;;5068366;28;19920;-66
2021/07/05 09:01:34;;;;;;;;;;;11.90;96.90;;;;;;5069607;28;20282;-66
2021/07/05 09:04:01;;;;;;;;;;;11.90;96.70;;;;;;5068459;28;20389;-67
2021/07/05 09:06:30;;;;;;;;;;;11.90;97.10;;;;;;5071421;28;19927;-66
2021/07/05 09:08:59;;;;;;;;;;;11.80;96.90;;;;;;5069102;28;19912;-66
2021/07/05 09:11:44;;;;;;;;;;;11.80;97.00;;;;;;5071753;28;19912;-67
2021/07/05 09:14:22;;;;;;;;;;;11.80;96.80;;;;;;5073633;28;20283;-67
2021/07/05 09:16:50;;;;;;;;;;;11.80;96.80;;;;;;5075474;28;19916;-66
2021/07/05 09:19:27;;;;;;;;;;;11.70;96.50;;;;;;5074639;28;19919;-66
2021/07/05 09:21:55;;;;;;;;;;;11.70;96.80;;;;;;5072396;28;20252;-67
2021/07/05 09:24:31;;;;;;;;;;;11.70;96.60;;;;;;5075293;28;19954;-67
2021/07/05 09:27:02;;;;;;;;;;;11.70;97.20;;;;;;5074581;28;19924;-66
2021/07/05 09:29:29;;;;;;;;;;;11.70;97.00;;;;;;5075515;28;20373;-67
2021/07/05 09:31:57;;;;;;;;;;;11.60;97.50;;;;;;5074211;28;19913;-67
2021/07/05 09:34:27;;;;;;;;;;;11.70;97.30;;;;;;5075150;28;19909;-67
2021/07/05 09:36:55;;;;;;;;;;;11.60;97.20;;;;;;5071676;28;19959;-67
2021/07/05 09:39:22;;;;;;;;;;;11.60;97.30;;;;;;5064597;28;20270;-67
2021/07/05 09:41:52;;;;;;;;;;;11.70;97.40;;;;;;5074989;28;20358;-67
2021/07/05 09:44:21;;;;;;;;;;;11.60;97.50;;;;;;5073958;28;19917;-67
2021/07/05 09:46:49;;;;;;;;;;;11.50;97.30;;;;;;5074991;28;19920;-67
2021/07/05 09:49:18;;;;;;;;;;;11.60;97.20;;;;;;5074721;28;20003;-67
2021/07/05 09:52:04;;;;;;;;;;;11.60;97.40;;;;;;5074755;28;19915;-68
2021/07/05 09:54:31;;;;;;;;;;;11.50;97.80;;;;;;5074975;28;19919;-67
2021/07/05 09:56:58;;;;;;;;;;;11.50;98.30;;;;;;5073861;28;19919;-68
2021/07/05 09:59:25;;;;;;;;;;;11.50;97.90;;;;;;5074967;28;19909;-68
2021/07/05 10:01:55;;;;;;;;;;;11.50;98.20;;;;;;5073758;28;19918;-68
2021/07/05 10:04:33;;;;;;;;;;;11.50;98.40;;;;;;5075066;28;19948;-68
2021/07/05 10:07:02;;;;;;;;;;;11.50;98.90;;;;;;5071487;28;19924;-68
2021/07/05 10:09:43;;;;;;;;;;;11.40;98.70;;;;;;5074077;28;19947;-68
2021/07/05 10:12:29;;;;;;;;;;;11.40;98.90;;;;;;5073537;28;19913;-67
2021/07/05 10:15:04;;;;;;;;;;;11.40;98.40;;;;;;5073621;28;19920;-65
2021/07/05 10:17:41;;;;;;;;;;;11.40;98.30;;;;;;5054199;28;19916;-67
2021/07/05 10:20:11;;;;;;;;;;;11.40;98.70;;;;;;5054988;28;20000;-66
2021/07/05 10:22:39;;;;;;;;;;;11.30;98.70;;;;;;5073716;28;20705;-67
2021/07/05 10:25:06;;;;;;;;;;;11.30;98.50;;;;;;5070988;28;19913;-67
2021/07/05 10:27:33;;;;;;;;;;;11.30;98.60;;;;;;5073668;28;19920;-66
2021/07/05 10:30:01;;;;;;;;;;;11.30;99.40;;;;;;5074212;28;19909;-66
2021/07/05 10:32:28;;;;;;;;;;;11.30;98.40;;;;;;5073422;28;19958;-66
2021/07/05 10:34:55;;;;;;;;;;;11.30;99.00;;;;;;5074039;28;19912;-67
2021/07/05 10:37:42;;;;;;;;;;;11.30;98.20;;;;;;5071537;28;20298;-65
2021/07/05 10:40:10;;;;;;;;;;;11.20;99.50;;;;;;5072921;28;19919;-68
2021/07/05 10:42:40;;;;;;;;;;;11.30;98.50;;;;;;5073978;28;20283;-67
2021/07/05 10:45:08;;;;;;;;;;;11.20;98.40;;;;;;5072997;28;20359;-67
2021/07/05 10:47:50;;;;;;;;;;;11.20;98.40;;;;;;5073598;28;20013;-66
2021/07/05 10:50:44;;;;;;;;;;;11.20;98.20;;;;;;5072891;28;19908;-65
2021/07/05 10:53:12;;;;;;;;;;;11.20;98.30;;;;;;5068392;28;19947;-65
2021/07/05 10:55:43;;;;;;;;;;;11.30;99.90;;;;;;5073556;28;19962;-66
2021/07/05 10:58:18;;;;;;;;;;;11.20;98.50;;;;;;5072592;28;19909;-66
2021/07/05 11:00:46;;;;;;;;;;;11.20;98.90;;;;;;5073155;28;19942;-66
2021/07/05 11:03:32;;;;;;;;;;;11.20;99.20;;;;;;5072714;28;19917;-67
2021/07/05 11:05:59;;;;;;;;;;;11.20;99.80;;;;;;5073242;28;20347;-67
2021/07/05 11:08:26;;;;;;;;;;;11.20;98.80;;;;;;5069576;28;19920;-66
2021/07/05 11:11:12;;;;;;;;;;;11.20;99.00;;;;;;5073421;28;20347;-67
2021/07/05 11:13:40;;;;;;;;;;;11.10;99.10;;;;;;5071638;28;19934;-67
2021/07/05 11:16:08;;;;;;;;;;;11.10;99.70;;;;;;5073170;28;19921;-66
2021/07/05 11:18:37;;;;;;;;;;;11.10;99.50;;;;;;5071342;28;20026;-67
2021/07/05 11:21:04;;;;;;;;;;;11.10;99.50;;;;;;5073003;28;19913;-66
2021/07/05 11:23:48;;;;;;;;;;;11.00;99.90;;;;;;5068684;28;19947;-66
2021/07/05 11:26:19;;;;;;;;;;;11.00;99.60;;;;;;5070777;28;19939;-66
2021/07/05 11:28:46;;;;;;;;;;;11.00;99.80;;;;;;5070011;28;19928;-66
2021/07/05 11:31:22;;;;;;;;;;;11.00;99.70;;;;;;5070894;28;19928;-66
2021/07/05 11:33:48;;;;;;;;;;;11.00;99.20;;;;;;5068433;28;20279;-67
2021/07/05 11:36:20;;;;;;;;;;;11.00;99.20;;;;;;5070186;28;20434;-68
2021/07/05 11:39:07;;;;;;;;;;;11.00;99.40;;;;;;5068513;28;19948;-67
2021/07/05 11:41:44;;;;;;;;;;;11.00;99.30;;;;;;5070670;28;19912;-66
2021/07/05 11:44:14;;;;;;;;;;;11.00;99.20;;;;;;5069657;28;19918;-66
2021/07/05 11:46:41;;;;;;;;;;;11.00;98.90;;;;;;5069276;28;19920;-66
2021/07/05 11:49:09;;;;;;;;;;;10.90;99.00;;;;;;5070173;28;19912;-67
2021/07/05 11:51:39;;;;;;;;;;;10.90;99.50;;;;;;5069068;28;19916;-65
2021/07/05 11:54:07;;;;;;;;;;;11.00;99.20;;;;;;5070685;28;19912;-65
2021/07/05 11:56:47;;;;;;;;;;;11.00;99.70;;;;;;5070020;28;20027;-67
2021/07/05 11:59:27;;;;;;;;;;;11.00;99.60;;;;;;5069583;28;19916;-66
2021/07/05 12:01:59;;;;;;;;;;;11.00;99.70;;;;;;5069202;28;19967;-65
2021/07/05 12:04:31;;;;;;;;;;;10.90;99.50;;;;;;5070322;28;19944;-66
2021/07/05 12:06:58;;;;;;;;;;;10.90;99.90;;;;;;5068729;28;19978;-66
2021/07/05 12:09:29;;;;;;;;;;;10.90;99.90;;;;;;5067652;28;19984;-66
2021/07/05 12:11:56;;;;;;;;;;;10.90;99.90;;;;;;5070183;28;19908;-66
2021/07/05 12:14:25;;;;;;;;;;;10.80;99.90;;;;;;5067735;28;19912;-67
2021/07/05 12:16:53;;;;;;;;;;;10.80;99.90;;;;;;5070251;28;19913;-66
2021/07/05 12:19:20;;;;;;;;;;;10.80;99.90;;;;;;5069291;28;19916;-67
2021/07/05 12:21:49;;;;;;;;;;;10.70;99.90;;;;;;5068229;28;19967;-66
2021/07/05 12:24:20;;;;;;;;;;;10.60;99.90;;;;;;5069472;28;19913;-66
2021/07/05 12:26:48;;;;;;;;;;;10.60;99.90;;;;;;5070041;28;19971;-67
2021/07/05 12:29:18;;;;;;;;;;;10.60;99.90;;;;;;5069034;28;20451;-67
2021/07/05 12:31:57;;;;;;;;;;;10.50;99.90;;;;;;5069883;28;19931;-67
2021/07/05 12:34:35;;;;;;;;;;;10.60;99.90;;;;;;5069236;28;19923;-66
2021/07/05 12:37:02;;;;;;;;;;;10.50;99.90;;;;;;5068315;28;20007;-66
2021/07/05 12:39:29;;;;;;;;;;;10.50;99.90;;;;;;5070015;28;19947;-66
2021/07/05 12:41:55;;;;;;;;;;;10.50;99.90;;;;;;5067884;28;19922;-66
2021/07/05 12:44:22;;;;;;;;;;;10.50;99.90;;;;;;5069827;28;19908;-66
2021/07/05 12:46:49;;;;;;;;;;;10.50;99.90;;;;;;5068983;28;19958;-66
2021/07/05 12:49:16;;;;;;;;;;;10.50;99.90;;;;;;5073763;28;19995;-67
2021/07/05 12:51:42;;;;;;;;;;;10.50;99.90;;;;;;5072459;28;19923;-65
2021/07/05 12:54:19;;;;;;;;;;;10.50;99.90;;;;;;5072299;28;20011;-67
2021/07/05 12:56:46;;;;;;;;;;;10.50;99.90;;;;;;5073149;28;19934;-66
2021/07/05 12:59:17;;;;;;;;;;;10.40;99.90;;;;;;5073693;28;20354;-65
2021/07/05 13:01:44;;;;;;;;;;;10.40;99.90;;;;;;5073562;28;19967;-66
2021/07/05 13:04:12;;;;;;;;;;;10.40;99.90;;;;;;5073184;28;19912;-66
2021/07/05 13:06:51;;;;;;;;;;;10.30;99.90;;;;;;5071860;28;20466;-66
2021/07/05 13:09:20;;;;;;;;;;;10.20;99.90;;;;;;5073295;28;19935;-66
2021/07/05 13:11:49;;;;;;;;;;;10.20;99.90;;;;;;5059766;28;20023;-65
2021/07/05 13:14:18;;;;;;;;;;;10.10;99.90;;;;;;5073500;28;19913;-65
2021/07/05 13:16:45;;;;;;;;;;;10.10;99.90;;;;;;5072869;28;19924;-65
2021/07/05 13:19:14;;;;;;;;;;;10.10;99.90;;;;;;5073495;28;20374;-66
2021/07/05 13:21:41;;;;;;;;;;;10.10;99.90;;;;;;5072029;28;19908;-65
2021/07/05 13:24:25;;;;;;;;;;;10.00;99.90;;;;;;5053595;28;20428;-65
2021/07/05 13:26:54;;;;;;;;;;;10.00;99.90;;;;;;5055553;28;19921;-65
2021/07/05 13:29:25;;;;;;;;;;;9.90;99.90;;;;;;5073086;28;19975;-66
2021/07/05 13:31:52;;;;;;;;;;;9.90;99.90;;;;;;5072128;28;20359;-66
2021/07/05 13:34:35;;;;;;;;;;;9.80;99.90;;;;;;5072737;28;20339;-65
2021/07/05 13:37:02;;;;;;;;;;;9.80;99.90;;;;;;5070774;28;19916;-66
2021/07/05 13:39:34;;;;;;;;;;;9.90;99.90;;;;;;5072997;28;19943;-66
2021/07/05 13:42:08;;;;;;;;;;;9.90;99.90;;;;;;5072212;28;19913;-66
2021/07/05 13:44:35;;;;;;;;;;;9.80;99.90;;;;;;5072823;28;19908;-66
2021/07/05 13:47:14;;;;;;;;;;;9.80;99.90;;;;;;5070289;28;20031;-66
2021/07/05 13:49:42;;;;;;;;;;;9.80;99.90;;;;;;5052692;28;19909;-67
2021/07/05 13:52:08;;;;;;;;;;;9.80;99.90;;;;;;5055164;28;20051;-66
2021/07/05 13:54:35;;;;;;;;;;;9.70;99.90;;;;;;5071825;28;19916;-66
2021/07/05 13:57:06;;;;;;;;;;;9.70;99.90;;;;;;5072830;28;20003;-66
2021/07/05 13:59:32;;;;;;;;;;;9.70;99.90;;;;;;5071111;28;19913;-66
2021/07/05 14:01:59;;;;;;;;;;;9.70;99.90;;;;;;5072569;28;20287;-65
2021/07/05 14:04:25;;;;;;;;;;;9.70;99.90;;;;;;5070359;28;20252;-66
2021/07/05 14:06:52;;;;;;;;;;;9.60;99.90;;;;;;5071580;28;19966;-66
2021/07/05 14:09:19;;;;;;;;;;;9.50;99.90;;;;;;5071262;28;20078;-66
2021/07/05 14:11:46;;;;;;;;;;;9.50;99.90;;;;;;5070603;28;19959;-66
2021/07/05 14:14:13;;;;;;;;;;;9.50;99.90;;;;;;5071088;28;19916;-65
2021/07/05 14:16:39;;;;;;;;;;;9.50;99.90;;;;;;5072402;28;19953;-66
2021/07/05 14:19:07;;;;;;;;;;;9.40;99.90;;;;;;5071296;28;19974;-66
2021/07/05 14:21:33;;;;;;;;;;;9.40;99.90;;;;;;5072047;28;20008;-66
2021/07/05 14:24:00;;;;;;;;;;;9.40;99.90;;;;;;5071416;28;20548;-66
2021/07/05 14:26:27;;;;;;;;;;;9.40;99.90;;;;;;5071893;28;19968;-65
2021/07/05 14:28:53;;;;;;;;;;;9.40;99.90;;;;;;5071212;28;19952;-65